Berkeley Township, New Jersey
Current Conditions -  °F | °C
As of 9:55 PM on Wednesday 26 Nov 2014 (Local Time) from KMJX Reporting Station
Overcast Overcast  
Wind Chill:   Ceiling: 1500
Heat Index:   Visibility: 8mi
Dew Point:   Wind: 0mph
Humidity: 93%   Direction: NA
Pressure: 29.81"   Gusts: NA
Location:  39.9559°N, 74.2574°W
Report Text: KMJX 270255Z AUTO 00000KT 8SM SCT008 OVC015 02/01 A2981 RMK AO1 52010
Loading
Personal Weather Stations






























Interactive Weather Map New forecast layout! Learn more

10-Day Weather Forecast

Advertisements
Track Severe Weather on mobile